sensor_id;sensor_type;location;lat;lon;timestamp;P1;durP1;ratioP1;P2;durP2;ratioP2
9188;SDS011;34313;50.780;6.084;2023-07-29T00:02:07;2.00;;;1.90;;
9188;SDS011;34313;50.780;6.084;2023-07-29T00:04:33;2.90;;;2.07;;
9188;SDS011;34313;50.780;6.084;2023-07-29T00:06:58;2.07;;;1.87;;
9188;SDS011;34313;50.780;6.084;2023-07-29T00:09:23;1.93;;;1.83;;
9188;SDS011;34313;50.780;6.084;2023-07-29T00:11:48;2.00;;;1.90;;
9188;SDS011;34313;50.780;6.084;2023-07-29T00:14:14;2.40;;;1.93;;
9188;SDS011;34313;50.780;6.084;2023-07-29T00:16:39;2.23;;;1.90;;
9188;SDS011;34313;50.780;6.084;2023-07-29T00:19:04;1.93;;;1.80;;
9188;SDS011;34313;50.780;6.084;2023-07-29T00:21:30;2.20;;;2.00;;
9188;SDS011;34313;50.780;6.084;2023-07-29T00:23:55;2.40;;;1.73;;
9188;SDS011;34313;50.780;6.084;2023-07-29T00:26:22;2.30;;;2.10;;
9188;SDS011;34313;50.780;6.084;2023-07-29T00:28:48;2.10;;;1.90;;
9188;SDS011;34313;50.780;6.084;2023-07-29T00:31:13;3.67;;;1.80;;
9188;SDS011;34313;50.780;6.084;2023-07-29T00:33:38;1.63;;;1.53;;
9188;SDS011;34313;50.780;6.084;2023-07-29T00:36:04;2.20;;;1.53;;
9188;SDS011;34313;50.780;6.084;2023-07-29T00:38:29;3.00;;;1.63;;
9188;SDS011;34313;50.780;6.084;2023-07-29T00:40:56;2.20;;;1.83;;
9188;SDS011;34313;50.780;6.084;2023-07-29T00:43:22;2.93;;;1.90;;
9188;SDS011;34313;50.780;6.084;2023-07-29T00:45:48;1.57;;;1.27;;
9188;SDS011;34313;50.780;6.084;2023-07-29T00:48:13;2.27;;;1.77;;
9188;SDS011;34313;50.780;6.084;2023-07-29T00:50:39;2.00;;;1.50;;
9188;SDS011;34313;50.780;6.084;2023-07-29T00:53:05;1.40;;;1.30;;
9188;SDS011;34313;50.780;6.084;2023-07-29T00:55:31;1.57;;;1.47;;
9188;SDS011;34313;50.780;6.084;2023-07-29T00:57:57;1.50;;;1.40;;
9188;SDS011;34313;50.780;6.084;2023-07-29T01:00:22;1.33;;;1.23;;
9188;SDS011;34313;50.780;6.084;2023-07-29T01:02:47;1.13;;;1.13;;
9188;SDS011;34313;50.780;6.084;2023-07-29T01:05:13;2.20;;;1.50;;
9188;SDS011;34313;50.780;6.084;2023-07-29T01:07:49;1.40;;;1.30;;
9188;SDS011;34313;50.780;6.084;2023-07-29T01:10:25;2.57;;;1.30;;
9188;SDS011;34313;50.780;6.084;2023-07-29T01:13:08;1.40;;;1.30;;
9188;SDS011;34313;50.780;6.084;2023-07-29T01:15:53;1.60;;;1.27;;
9188;SDS011;34313;50.780;6.084;2023-07-29T01:18:22;1.77;;;1.40;;
9188;SDS011;34313;50.780;6.084;2023-07-29T01:20:49;2.77;;;1.50;;
9188;SDS011;34313;50.780;6.084;2023-07-29T01:23:23;2.17;;;1.30;;
9188;SDS011;34313;50.780;6.084;2023-07-29T01:25:49;1.47;;;1.07;;
9188;SDS011;34313;50.780;6.084;2023-07-29T01:28:14;1.20;;;1.10;;
9188;SDS011;34313;50.780;6.084;2023-07-29T01:30:40;1.30;;;1.20;;
9188;SDS011;34313;50.780;6.084;2023-07-29T01:33:16;2.97;;;1.27;;
9188;SDS011;34313;50.780;6.084;2023-07-29T01:35:46;1.97;;;1.27;;
9188;SDS011;34313;50.780;6.084;2023-07-29T01:38:19;0.97;;;0.90;;
9188;SDS011;34313;50.780;6.084;2023-07-29T01:40:49;1.17;;;1.07;;
9188;SDS011;34313;50.780;6.084;2023-07-29T01:43:16;2.40;;;1.30;;
9188;SDS011;34313;50.780;6.084;2023-07-29T01:45:43;0.77;;;0.77;;
9188;SDS011;34313;50.780;6.084;2023-07-29T01:48:09;2.40;;;1.07;;
9188;SDS011;34313;50.780;6.084;2023-07-29T01:50:34;2.07;;;1.23;;
9188;SDS011;34313;50.780;6.084;2023-07-29T01:52:59;1.43;;;1.33;;
9188;SDS011;34313;50.780;6.084;2023-07-29T01:55:25;1.23;;;1.10;;
9188;SDS011;34313;50.780;6.084;2023-07-29T01:57:50;2.60;;;1.40;;
9188;SDS011;34313;50.780;6.084;2023-07-29T02:00:16;1.00;;;1.00;;
9188;SDS011;34313;50.780;6.084;2023-07-29T02:02:43;2.03;;;1.23;;
9188;SDS011;34313;50.780;6.084;2023-07-29T02:05:08;2.63;;;1.50;;
9188;SDS011;34313;50.780;6.084;2023-07-29T02:07:33;2.13;;;1.23;;
9188;SDS011;34313;50.780;6.084;2023-07-29T02:09:59;1.57;;;1.40;;
9188;SDS011;34313;50.780;6.084;2023-07-29T02:12:24;2.50;;;1.40;;
9188;SDS011;34313;50.780;6.084;2023-07-29T02:14:49;1.63;;;1.40;;
9188;SDS011;34313;50.780;6.084;2023-07-29T02:17:15;1.87;;;1.77;;
9188;SDS011;34313;50.780;6.084;2023-07-29T02:19:40;3.17;;;1.77;;
9188;SDS011;34313;50.780;6.084;2023-07-29T02:22:05;3.00;;;2.30;;
9188;SDS011;34313;50.780;6.084;2023-07-29T02:24:31;2.90;;;1.97;;
9188;SDS011;34313;50.780;6.084;2023-07-29T02:26:56;2.63;;;2.43;;
9188;SDS011;34313;50.780;6.084;2023-07-29T02:29:21;2.80;;;2.60;;
9188;SDS011;34313;50.780;6.084;2023-07-29T02:31:47;2.67;;;2.30;;
9188;SDS011;34313;50.780;6.084;2023-07-29T02:34:12;2.00;;;1.90;;
9188;SDS011;34313;50.780;6.084;2023-07-29T02:36:38;4.10;;;2.30;;
9188;SDS011;34313;50.780;6.084;2023-07-29T02:39:03;3.03;;;2.13;;
9188;SDS011;34313;50.780;6.084;2023-07-29T02:41:28;3.97;;;2.50;;
9188;SDS011;34313;50.780;6.084;2023-07-29T02:43:54;2.20;;;2.10;;
9188;SDS011;34313;50.780;6.084;2023-07-29T02:46:19;2.90;;;2.20;;
9188;SDS011;34313;50.780;6.084;2023-07-29T02:48:45;2.63;;;2.43;;
9188;SDS011;34313;50.780;6.084;2023-07-29T02:51:10;2.47;;;2.27;;
9188;SDS011;34313;50.780;6.084;2023-07-29T02:53:35;2.80;;;2.60;;
9188;SDS011;34313;50.780;6.084;2023-07-29T02:56:04;3.07;;;2.83;;
9188;SDS011;34313;50.780;6.084;2023-07-29T02:58:29;2.83;;;2.63;;
9188;SDS011;34313;50.780;6.084;2023-07-29T03:01:01;2.50;;;2.30;;
9188;SDS011;34313;50.780;6.084;2023-07-29T03:03:27;3.33;;;2.73;;
9188;SDS011;34313;50.780;6.084;2023-07-29T03:06:03;3.07;;;2.87;;
9188;SDS011;34313;50.780;6.084;2023-07-29T03:08:33;3.07;;;2.77;;
9188;SDS011;34313;50.780;6.084;2023-07-29T03:10:58;3.50;;;2.50;;
9188;SDS011;34313;50.780;6.084;2023-07-29T03:13:29;3.40;;;2.67;;
9188;SDS011;34313;50.780;6.084;2023-07-29T03:15:55;3.77;;;3.07;;
9188;SDS011;34313;50.780;6.084;2023-07-29T03:18:29;3.00;;;2.50;;
9188;SDS011;34313;50.780;6.084;2023-07-29T03:20:55;2.63;;;2.40;;
9188;SDS011;34313;50.780;6.084;2023-07-29T03:23:21;3.40;;;3.10;;
9188;SDS011;34313;50.780;6.084;2023-07-29T03:25:48;2.70;;;2.50;;
9188;SDS011;34313;50.780;6.084;2023-07-29T03:28:15;3.00;;;2.70;;
9188;SDS011;34313;50.780;6.084;2023-07-29T03:30:41;3.50;;;3.10;;
9188;SDS011;34313;50.780;6.084;2023-07-29T03:33:06;3.10;;;2.80;;
9188;SDS011;34313;50.780;6.084;2023-07-29T03:35:31;6.00;;;3.00;;
9188;SDS011;34313;50.780;6.084;2023-07-29T03:37:56;4.60;;;2.87;;
9188;SDS011;34313;50.780;6.084;2023-07-29T03:40:22;3.87;;;3.57;;
9188;SDS011;34313;50.780;6.084;2023-07-29T03:42:47;3.43;;;3.13;;
9188;SDS011;34313;50.780;6.084;2023-07-29T03:45:12;3.90;;;3.37;;
9188;SDS011;34313;50.780;6.084;2023-07-29T03:47:38;3.03;;;2.80;;
9188;SDS011;34313;50.780;6.084;2023-07-29T03:50:04;6.77;;;3.50;;
9188;SDS011;34313;50.780;6.084;2023-07-29T03:52:30;3.63;;;3.33;;
9188;SDS011;34313;50.780;6.084;2023-07-29T03:54:55;3.80;;;3.40;;
9188;SDS011;34313;50.780;6.084;2023-07-29T03:57:20;4.87;;;3.87;;
9188;SDS011;34313;50.780;6.084;2023-07-29T03:59:46;4.13;;;3.60;;
9188;SDS011;34313;50.780;6.084;2023-07-29T04:02:11;4.40;;;3.73;;
9188;SDS011;34313;50.780;6.084;2023-07-29T04:04:36;3.33;;;3.03;;
9188;SDS011;34313;50.780;6.084;2023-07-29T04:07:02;5.10;;;3.77;;
9188;SDS011;34313;50.780;6.084;2023-07-29T04:09:27;4.17;;;3.60;;
9188;SDS011;34313;50.780;6.084;2023-07-29T04:11:53;4.50;;;4.10;;
9188;SDS011;34313;50.780;6.084;2023-07-29T04:14:18;5.20;;;4.33;;
9188;SDS011;34313;50.780;6.084;2023-07-29T04:16:43;4.47;;;3.47;;
9188;SDS011;34313;50.780;6.084;2023-07-29T04:19:10;4.50;;;4.07;;
9188;SDS011;34313;50.780;6.084;2023-07-29T04:21:35;4.90;;;4.50;;
9188;SDS011;34313;50.780;6.084;2023-07-29T04:24:00;4.20;;;3.80;;
9188;SDS011;34313;50.780;6.084;2023-07-29T04:26:26;5.47;;;4.20;;
9188;SDS011;34313;50.780;6.084;2023-07-29T04:28:51;4.83;;;3.83;;
9188;SDS011;34313;50.780;6.084;2023-07-29T04:31:16;6.27;;;4.10;;
9188;SDS011;34313;50.780;6.084;2023-07-29T04:33:42;6.40;;;4.70;;
9188;SDS011;34313;50.780;6.084;2023-07-29T04:36:07;3.90;;;3.60;;
9188;SDS011;34313;50.780;6.084;2023-07-29T04:38:33;7.40;;;4.37;;
9188;SDS011;34313;50.780;6.084;2023-07-29T04:40:58;6.60;;;4.77;;
9188;SDS011;34313;50.780;6.084;2023-07-29T04:43:27;5.40;;;4.17;;
9188;SDS011;34313;50.780;6.084;2023-07-29T04:45:53;4.40;;;4.00;;
9188;SDS011;34313;50.780;6.084;2023-07-29T04:48:19;5.00;;;4.60;;
9188;SDS011;34313;50.780;6.084;2023-07-29T04:50:45;6.03;;;5.13;;
9188;SDS011;34313;50.780;6.084;2023-07-29T04:53:10;7.37;;;4.90;;
9188;SDS011;34313;50.780;6.084;2023-07-29T04:55:36;4.97;;;4.53;;
9188;SDS011;34313;50.780;6.084;2023-07-29T04:58:01;5.30;;;4.80;;
9188;SDS011;34313;50.780;6.084;2023-07-29T05:00:27;4.97;;;4.50;;
9188;SDS011;34313;50.780;6.084;2023-07-29T05:02:52;7.33;;;5.37;;
9188;SDS011;34313;50.780;6.084;2023-07-29T05:05:17;6.43;;;5.53;;
9188;SDS011;34313;50.780;6.084;2023-07-29T05:07:42;6.03;;;5.43;;
9188;SDS011;34313;50.780;6.084;2023-07-29T05:10:08;7.17;;;6.47;;
9188;SDS011;34313;50.780;6.084;2023-07-29T05:12:34;6.53;;;5.37;;
9188;SDS011;34313;50.780;6.084;2023-07-29T05:14:59;7.53;;;6.30;;
9188;SDS011;34313;50.780;6.084;2023-07-29T05:17:25;7.60;;;6.37;;
9188;SDS011;34313;50.780;6.084;2023-07-29T05:19:50;7.90;;;6.60;;
9188;SDS011;34313;50.780;6.084;2023-07-29T05:22:15;6.60;;;5.90;;
9188;SDS011;34313;50.780;6.084;2023-07-29T05:24:41;6.80;;;5.40;;
9188;SDS011;34313;50.780;6.084;2023-07-29T05:27:06;6.13;;;4.83;;
9188;SDS011;34313;50.780;6.084;2023-07-29T05:29:33;5.70;;;5.10;;
9188;SDS011;34313;50.780;6.084;2023-07-29T05:31:58;6.83;;;4.50;;
9188;SDS011;34313;50.780;6.084;2023-07-29T05:34:24;3.67;;;3.37;;
9188;SDS011;34313;50.780;6.084;2023-07-29T05:36:49;4.43;;;4.07;;
9188;SDS011;34313;50.780;6.084;2023-07-29T05:39:14;4.80;;;4.00;;
9188;SDS011;34313;50.780;6.084;2023-07-29T05:41:40;4.37;;;4.07;;
9188;SDS011;34313;50.780;6.084;2023-07-29T05:44:05;3.90;;;3.50;;
9188;SDS011;34313;50.780;6.084;2023-07-29T05:46:30;3.50;;;3.20;;
9188;SDS011;34313;50.780;6.084;2023-07-29T05:48:56;3.00;;;2.80;;
9188;SDS011;34313;50.780;6.084;2023-07-29T05:51:21;4.50;;;3.00;;
9188;SDS011;34313;50.780;6.084;2023-07-29T05:53:46;3.00;;;2.80;;
9188;SDS011;34313;50.780;6.084;2023-07-29T05:56:11;3.10;;;2.80;;
9188;SDS011;34313;50.780;6.084;2023-07-29T05:58:37;3.27;;;2.67;;
9188;SDS011;34313;50.780;6.084;2023-07-29T06:01:02;3.20;;;2.90;;
9188;SDS011;34313;50.780;6.084;2023-07-29T06:03:27;6.40;;;2.67;;
9188;SDS011;34313;50.780;6.084;2023-07-29T06:05:53;4.73;;;2.27;;
9188;SDS011;34313;50.780;6.084;2023-07-29T06:08:19;2.50;;;2.30;;
9188;SDS011;34313;50.780;6.084;2023-07-29T06:10:44;6.10;;;2.70;;
9188;SDS011;34313;50.780;6.084;2023-07-29T06:13:10;2.50;;;2.30;;
9188;SDS011;34313;50.780;6.084;2023-07-29T06:15:35;2.60;;;2.20;;
9188;SDS011;34313;50.780;6.084;2023-07-29T06:18:00;3.10;;;2.77;;
9188;SDS011;34313;50.780;6.084;2023-07-29T06:20:26;2.20;;;2.00;;
9188;SDS011;34313;50.780;6.084;2023-07-29T06:22:51;5.30;;;2.50;;
9188;SDS011;34313;50.780;6.084;2023-07-29T06:25:16;3.50;;;2.20;;
9188;SDS011;34313;50.780;6.084;2023-07-29T06:27:41;2.30;;;1.73;;
9188;SDS011;34313;50.780;6.084;2023-07-29T06:30:07;2.30;;;1.70;;
9188;SDS011;34313;50.780;6.084;2023-07-29T06:32:33;2.60;;;2.07;;
9188;SDS011;34313;50.780;6.084;2023-07-29T06:34:59;2.50;;;1.87;;
9188;SDS011;34313;50.780;6.084;2023-07-29T06:37:24;5.73;;;2.27;;
9188;SDS011;34313;50.780;6.084;2023-07-29T06:39:49;2.80;;;2.10;;
9188;SDS011;34313;50.780;6.084;2023-07-29T06:42:15;1.80;;;1.70;;
9188;SDS011;34313;50.780;6.084;2023-07-29T06:44:40;3.70;;;2.10;;
9188;SDS011;34313;50.780;6.084;2023-07-29T06:47:05;5.57;;;3.00;;
9188;SDS011;34313;50.780;6.084;2023-07-29T06:49:30;3.10;;;1.80;;
9188;SDS011;34313;50.780;6.084;2023-07-29T06:51:56;2.00;;;1.80;;
9188;SDS011;34313;50.780;6.084;2023-07-29T06:54:24;8.33;;;1.80;;
9188;SDS011;34313;50.780;6.084;2023-07-29T06:56:50;5.00;;;2.10;;
9188;SDS011;34313;50.780;6.084;2023-07-29T06:59:16;2.80;;;1.70;;
9188;SDS011;34313;50.780;6.084;2023-07-29T07:01:41;2.50;;;1.67;;
9188;SDS011;34313;50.780;6.084;2023-07-29T07:04:06;2.13;;;1.80;;
9188;SDS011;34313;50.780;6.084;2023-07-29T07:06:32;1.60;;;1.50;;
9188;SDS011;34313;50.780;6.084;2023-07-29T07:08:57;2.57;;;1.50;;
9188;SDS011;34313;50.780;6.084;2023-07-29T07:11:22;1.90;;;1.70;;
9188;SDS011;34313;50.780;6.084;2023-07-29T07:13:48;3.10;;;2.70;;
9188;SDS011;34313;50.780;6.084;2023-07-29T07:16:13;3.80;;;1.70;;
9188;SDS011;34313;50.780;6.084;2023-07-29T07:18:38;3.00;;;1.60;;
9188;SDS011;34313;50.780;6.084;2023-07-29T07:21:03;2.47;;;1.67;;
9188;SDS011;34313;50.780;6.084;2023-07-29T07:23:29;1.90;;;1.70;;
9188;SDS011;34313;50.780;6.084;2023-07-29T07:25:54;1.90;;;1.30;;
9188;SDS011;34313;50.780;6.084;2023-07-29T07:28:19;1.80;;;1.40;;
9188;SDS011;34313;50.780;6.084;2023-07-29T07:30:45;1.73;;;1.33;;
9188;SDS011;34313;50.780;6.084;2023-07-29T07:33:11;2.97;;;1.93;;
9188;SDS011;34313;50.780;6.084;2023-07-29T07:35:36;1.73;;;1.60;;
9188;SDS011;34313;50.780;6.084;2023-07-29T07:38:02;1.50;;;1.40;;
9188;SDS011;34313;50.780;6.084;2023-07-29T07:40:29;2.10;;;1.30;;
9188;SDS011;34313;50.780;6.084;2023-07-29T07:42:56;1.30;;;1.20;;
9188;SDS011;34313;50.780;6.084;2023-07-29T07:45:21;4.27;;;1.40;;
9188;SDS011;34313;50.780;6.084;2023-07-29T07:47:51;1.77;;;1.27;;
9188;SDS011;34313;50.780;6.084;2023-07-29T07:50:18;1.20;;;1.10;;
9188;SDS011;34313;50.780;6.084;2023-07-29T07:52:49;1.80;;;1.42;;
9188;SDS011;34313;50.780;6.084;2023-07-29T07:55:15;2.33;;;1.40;;
9188;SDS011;34313;50.780;6.084;2023-07-29T07:57:41;2.22;;;1.70;;
9188;SDS011;34313;50.780;6.084;2023-07-29T08:00:06;1.23;;;1.13;;
9188;SDS011;34313;50.780;6.084;2023-07-29T08:02:32;5.30;;;1.47;;
9188;SDS011;34313;50.780;6.084;2023-07-29T08:04:57;2.73;;;2.00;;
9188;SDS011;34313;50.780;6.084;2023-07-29T08:07:23;2.83;;;1.53;;
9188;SDS011;34313;50.780;6.084;2023-07-29T08:09:51;2.90;;;1.40;;
9188;SDS011;34313;50.780;6.084;2023-07-29T08:12:16;3.03;;;1.20;;
9188;SDS011;34313;50.780;6.084;2023-07-29T08:14:42;1.67;;;1.57;;
9188;SDS011;34313;50.780;6.084;2023-07-29T08:17:07;1.73;;;1.40;;
9188;SDS011;34313;50.780;6.084;2023-07-29T08:19:32;2.87;;;1.80;;
9188;SDS011;34313;50.780;6.084;2023-07-29T08:22:00;1.40;;;1.30;;
9188;SDS011;34313;50.780;6.084;2023-07-29T08:24:27;2.40;;;1.37;;
9188;SDS011;34313;50.780;6.084;2023-07-29T08:26:53;5.87;;;1.50;;
9188;SDS011;34313;50.780;6.084;2023-07-29T08:29:18;2.33;;;1.50;;
9188;SDS011;34313;50.780;6.084;2023-07-29T08:31:43;1.50;;;1.33;;
9188;SDS011;34313;50.780;6.084;2023-07-29T08:34:09;35.90;;;1.83;;
9188;SDS011;34313;50.780;6.084;2023-07-29T08:36:34;1.90;;;1.03;;
9188;SDS011;34313;50.780;6.084;2023-07-29T08:38:59;1.67;;;1.20;;
9188;SDS011;34313;50.780;6.084;2023-07-29T08:41:26;2.93;;;1.30;;
9188;SDS011;34313;50.780;6.084;2023-07-29T08:43:59;1.83;;;1.20;;
9188;SDS011;34313;50.780;6.084;2023-07-29T08:46:34;2.87;;;1.40;;
9188;SDS011;34313;50.780;6.084;2023-07-29T08:49:00;1.50;;;1.40;;
9188;SDS011;34313;50.780;6.084;2023-07-29T08:51:27;1.20;;;1.00;;
9188;SDS011;34313;50.780;6.084;2023-07-29T08:53:54;1.23;;;1.13;;
9188;SDS011;34313;50.780;6.084;2023-07-29T08:56:20;2.33;;;1.37;;
9188;SDS011;34313;50.780;6.084;2023-07-29T08:58:45;1.70;;;1.60;;
9188;SDS011;34313;50.780;6.084;2023-07-29T09:01:11;1.53;;;1.33;;
9188;SDS011;34313;50.780;6.084;2023-07-29T09:03:37;1.30;;;1.20;;
9188;SDS011;34313;50.780;6.084;2023-07-29T09:06:02;2.17;;;1.63;;
9188;SDS011;34313;50.780;6.084;2023-07-29T09:08:28;1.83;;;1.73;;
9188;SDS011;34313;50.780;6.084;2023-07-29T09:10:54;2.37;;;1.50;;
9188;SDS011;34313;50.780;6.084;2023-07-29T09:13:23;1.30;;;1.20;;
9188;SDS011;34313;50.780;6.084;2023-07-29T09:15:49;1.47;;;1.37;;
9188;SDS011;34313;50.780;6.084;2023-07-29T09:18:20;1.63;;;1.30;;
9188;SDS011;34313;50.780;6.084;2023-07-29T09:20:46;2.20;;;2.00;;
9188;SDS011;34313;50.780;6.084;2023-07-29T09:23:12;1.97;;;1.70;;
9188;SDS011;34313;50.780;6.084;2023-07-29T09:25:38;3.63;;;2.17;;
9188;SDS011;34313;50.780;6.084;2023-07-29T09:28:08;2.30;;;2.03;;
9188;SDS011;34313;50.780;6.084;2023-07-29T09:30:35;1.90;;;1.60;;
9188;SDS011;34313;50.780;6.084;2023-07-29T09:33:02;2.83;;;1.93;;
9188;SDS011;34313;50.780;6.084;2023-07-29T09:35:27;2.30;;;1.87;;
9188;SDS011;34313;50.780;6.084;2023-07-29T09:37:57;1.40;;;1.30;;
9188;SDS011;34313;50.780;6.084;2023-07-29T09:40:22;2.17;;;1.73;;
9188;SDS011;34313;50.780;6.084;2023-07-29T09:42:48;3.07;;;1.57;;
9188;SDS011;34313;50.780;6.084;2023-07-29T09:45:21;2.13;;;1.93;;
9188;SDS011;34313;50.780;6.084;2023-07-29T09:47:47;2.47;;;2.27;;
9188;SDS011;34313;50.780;6.084;2023-07-29T09:50:13;3.20;;;1.97;;
9188;SDS011;34313;50.780;6.084;2023-07-29T09:52:38;2.70;;;2.00;;
9188;SDS011;34313;50.780;6.084;2023-07-29T09:55:04;2.10;;;1.90;;
9188;SDS011;34313;50.780;6.084;2023-07-29T09:57:31;2.70;;;1.60;;
9188;SDS011;34313;50.780;6.084;2023-07-29T09:59:57;3.00;;;1.80;;
9188;SDS011;34313;50.780;6.084;2023-07-29T10:02:22;3.33;;;1.83;;
9188;SDS011;34313;50.780;6.084;2023-07-29T10:04:50;1.83;;;1.60;;
9188;SDS011;34313;50.780;6.084;2023-07-29T10:07:16;2.50;;;1.50;;
9188;SDS011;34313;50.780;6.084;2023-07-29T10:09:43;2.60;;;1.70;;
9188;SDS011;34313;50.780;6.084;2023-07-29T10:12:10;2.53;;;1.33;;
9188;SDS011;34313;50.780;6.084;2023-07-29T10:14:36;2.40;;;1.70;;
9188;SDS011;34313;50.780;6.084;2023-07-29T10:17:03;2.17;;;1.40;;
9188;SDS011;34313;50.780;6.084;2023-07-29T10:19:30;1.80;;;1.70;;
9188;SDS011;34313;50.780;6.084;2023-07-29T10:21:56;2.40;;;1.53;;
9188;SDS011;34313;50.780;6.084;2023-07-29T10:24:29;4.83;;;1.87;;
9188;SDS011;34313;50.780;6.084;2023-07-29T10:26:59;2.10;;;1.73;;
9188;SDS011;34313;50.780;6.084;2023-07-29T10:29:28;1.80;;;1.70;;
9188;SDS011;34313;50.780;6.084;2023-07-29T10:31:57;1.70;;;1.60;;
9188;SDS011;34313;50.780;6.084;2023-07-29T10:34:26;1.53;;;1.37;;
9188;SDS011;34313;50.780;6.084;2023-07-29T10:36:52;2.40;;;1.63;;
9188;SDS011;34313;50.780;6.084;2023-07-29T10:39:17;1.97;;;1.80;;
9188;SDS011;34313;50.780;6.084;2023-07-29T10:41:56;2.00;;;1.80;;
9188;SDS011;34313;50.780;6.084;2023-07-29T10:47:13;1.43;;;1.33;;
9188;SDS011;34313;50.780;6.084;2023-07-29T10:49:42;1.70;;;1.60;;
9188;SDS011;34313;50.780;6.084;2023-07-29T10:52:08;3.30;;;2.77;;
9188;SDS011;34313;50.780;6.084;2023-07-29T10:54:43;1.90;;;1.70;;
9188;SDS011;34313;50.780;6.084;2023-07-29T10:57:30;1.10;;;1.10;;
9188;SDS011;34313;50.780;6.084;2023-07-29T10:59:59;3.27;;;1.87;;
9188;SDS011;34313;50.780;6.084;2023-07-29T11:02:31;1.67;;;1.57;;
9188;SDS011;34313;50.780;6.084;2023-07-29T11:05:04;2.53;;;1.37;;
9188;SDS011;34313;50.780;6.084;2023-07-29T11:07:31;1.50;;;1.40;;
9188;SDS011;34313;50.780;6.084;2023-07-29T11:10:07;1.77;;;1.60;;
9188;SDS011;34313;50.780;6.084;2023-07-29T11:12:37;1.70;;;1.53;;
9188;SDS011;34313;50.780;6.084;2023-07-29T11:15:04;1.50;;;1.40;;
9188;SDS011;34313;50.780;6.084;2023-07-29T11:17:44;2.00;;;1.70;;
9188;SDS011;34313;50.780;6.084;2023-07-29T11:20:13;1.40;;;1.30;;
9188;SDS011;34313;50.780;6.084;2023-07-29T11:22:40;2.30;;;2.10;;
9188;SDS011;34313;50.780;6.084;2023-07-29T11:25:07;4.80;;;1.67;;
9188;SDS011;34313;50.780;6.084;2023-07-29T11:27:34;1.50;;;1.37;;
9188;SDS011;34313;50.780;6.084;2023-07-29T11:30:06;1.50;;;1.40;;
9188;SDS011;34313;50.780;6.084;2023-07-29T11:32:33;1.20;;;1.10;;
9188;SDS011;34313;50.780;6.084;2023-07-29T11:35:07;1.83;;;1.10;;
9188;SDS011;34313;50.780;6.084;2023-07-29T11:37:34;2.00;;;1.37;;
9188;SDS011;34313;50.780;6.084;2023-07-29T11:40:00;1.50;;;1.40;;
9188;SDS011;34313;50.780;6.084;2023-07-29T11:42:26;1.53;;;1.40;;
9188;SDS011;34313;50.780;6.084;2023-07-29T11:44:53;1.70;;;1.53;;
9188;SDS011;34313;50.780;6.084;2023-07-29T11:47:18;2.23;;;1.47;;
9188;SDS011;34313;50.780;6.084;2023-07-29T11:49:44;1.60;;;1.50;;
9188;SDS011;34313;50.780;6.084;2023-07-29T11:52:09;1.57;;;1.37;;
9188;SDS011;34313;50.780;6.084;2023-07-29T11:54:36;1.83;;;1.30;;
9188;SDS011;34313;50.780;6.084;2023-07-29T11:57:03;1.53;;;1.43;;
9188;SDS011;34313;50.780;6.084;2023-07-29T11:59:31;1.83;;;1.73;;
9188;SDS011;34313;50.780;6.084;2023-07-29T12:01:58;4.70;;;1.37;;
9188;SDS011;34313;50.780;6.084;2023-07-29T12:04:25;1.90;;;1.30;;
9188;SDS011;34313;50.780;6.084;2023-07-29T12:06:51;2.20;;;1.60;;
9188;SDS011;34313;50.780;6.084;2023-07-29T12:09:16;2.20;;;1.70;;
9188;SDS011;34313;50.780;6.084;2023-07-29T12:11:42;1.50;;;1.40;;
9188;SDS011;34313;50.780;6.084;2023-07-29T12:14:09;2.30;;;1.40;;
9188;SDS011;34313;50.780;6.084;2023-07-29T12:16:41;1.33;;;1.23;;
9188;SDS011;34313;50.780;6.084;2023-07-29T12:19:08;2.70;;;1.90;;
9188;SDS011;34313;50.780;6.084;2023-07-29T12:21:33;2.17;;;1.80;;
9188;SDS011;34313;50.780;6.084;2023-07-29T12:23:59;1.80;;;1.70;;
9188;SDS011;34313;50.780;6.084;2023-07-29T12:26:27;1.27;;;1.17;;
9188;SDS011;34313;50.780;6.084;2023-07-29T12:28:55;1.63;;;1.30;;
9188;SDS011;34313;50.780;6.084;2023-07-29T12:31:21;2.63;;;1.60;;
9188;SDS011;34313;50.780;6.084;2023-07-29T12:33:47;1.83;;;1.67;;
9188;SDS011;34313;50.780;6.084;2023-07-29T12:36:12;2.17;;;1.57;;
9188;SDS011;34313;50.780;6.084;2023-07-29T12:38:37;2.13;;;1.93;;
9188;SDS011;34313;50.780;6.084;2023-07-29T12:41:03;2.37;;;1.90;;
9188;SDS011;34313;50.780;6.084;2023-07-29T12:43:28;2.10;;;1.90;;
9188;SDS011;34313;50.780;6.084;2023-07-29T12:45:53;2.93;;;2.30;;
9188;SDS011;34313;50.780;6.084;2023-07-29T12:48:19;2.63;;;1.93;;
9188;SDS011;34313;50.780;6.084;2023-07-29T12:50:44;2.80;;;2.17;;
9188;SDS011;34313;50.780;6.084;2023-07-29T12:53:09;2.23;;;2.10;;
9188;SDS011;34313;50.780;6.084;2023-07-29T12:55:35;2.70;;;2.10;;
9188;SDS011;34313;50.780;6.084;2023-07-29T12:58:01;3.70;;;2.40;;
9188;SDS011;34313;50.780;6.084;2023-07-29T13:00:27;3.67;;;2.20;;
9188;SDS011;34313;50.780;6.084;2023-07-29T13:02:52;3.07;;;2.53;;
9188;SDS011;34313;50.780;6.084;2023-07-29T13:05:17;2.47;;;2.27;;
9188;SDS011;34313;50.780;6.084;2023-07-29T13:07:43;1.73;;;1.63;;
9188;SDS011;34313;50.780;6.084;2023-07-29T13:10:09;3.07;;;2.10;;
9188;SDS011;34313;50.780;6.084;2023-07-29T13:12:35;2.80;;;1.90;;
9188;SDS011;34313;50.780;6.084;2023-07-29T13:15:00;3.57;;;2.80;;
9188;SDS011;34313;50.780;6.084;2023-07-29T13:17:25;4.47;;;3.50;;
9188;SDS011;34313;50.780;6.084;2023-07-29T13:19:51;3.40;;;2.43;;
9188;SDS011;34313;50.780;6.084;2023-07-29T13:22:16;3.00;;;2.40;;
9188;SDS011;34313;50.780;6.084;2023-07-29T13:24:42;3.37;;;2.20;;
9188;SDS011;34313;50.780;6.084;2023-07-29T13:27:07;1.77;;;1.63;;
9188;SDS011;34313;50.780;6.084;2023-07-29T13:29:33;2.70;;;2.07;;
9188;SDS011;34313;50.780;6.084;2023-07-29T13:31:58;1.60;;;1.50;;
9188;SDS011;34313;50.780;6.084;2023-07-29T13:34:23;3.87;;;1.40;;
9188;SDS011;34313;50.780;6.084;2023-07-29T13:36:48;1.93;;;1.50;;
9188;SDS011;34313;50.780;6.084;2023-07-29T13:39:14;1.60;;;1.50;;
9188;SDS011;34313;50.780;6.084;2023-07-29T13:41:39;1.80;;;1.70;;
9188;SDS011;34313;50.780;6.084;2023-07-29T13:44:04;1.97;;;1.50;;
9188;SDS011;34313;50.780;6.084;2023-07-29T13:46:29;1.90;;;1.63;;
9188;SDS011;34313;50.780;6.084;2023-07-29T13:48:55;2.97;;;1.80;;
9188;SDS011;34313;50.780;6.084;2023-07-29T13:51:20;2.83;;;1.63;;
9188;SDS011;34313;50.780;6.084;2023-07-29T13:53:45;3.10;;;1.87;;
9188;SDS011;34313;50.780;6.084;2023-07-29T13:56:11;2.60;;;1.73;;
9188;SDS011;34313;50.780;6.084;2023-07-29T13:58:36;2.27;;;1.83;;
9188;SDS011;34313;50.780;6.084;2023-07-29T14:01:01;3.23;;;1.90;;
9188;SDS011;34313;50.780;6.084;2023-07-29T14:03:27;2.90;;;2.20;;
9188;SDS011;34313;50.780;6.084;2023-07-29T14:05:52;3.67;;;2.33;;
9188;SDS011;34313;50.780;6.084;2023-07-29T14:08:17;4.70;;;1.57;;
9188;SDS011;34313;50.780;6.084;2023-07-29T14:10:43;3.03;;;1.63;;
9188;SDS011;34313;50.780;6.084;2023-07-29T14:13:08;3.10;;;2.33;;
9188;SDS011;34313;50.780;6.084;2023-07-29T14:15:33;3.20;;;1.87;;
9188;SDS011;34313;50.780;6.084;2023-07-29T14:17:58;2.97;;;1.97;;
9188;SDS011;34313;50.780;6.084;2023-07-29T14:20:24;2.20;;;2.00;;
9188;SDS011;34313;50.780;6.084;2023-07-29T14:22:49;4.40;;;2.53;;
9188;SDS011;34313;50.780;6.084;2023-07-29T14:25:14;2.70;;;2.17;;
9188;SDS011;34313;50.780;6.084;2023-07-29T14:27:40;2.60;;;2.20;;
9188;SDS011;34313;50.780;6.084;2023-07-29T14:30:06;3.03;;;2.53;;
9188;SDS011;34313;50.780;6.084;2023-07-29T14:32:32;3.57;;;2.20;;
9188;SDS011;34313;50.780;6.084;2023-07-29T14:34:57;1.93;;;1.67;;
9188;SDS011;34313;50.780;6.084;2023-07-29T14:37:22;4.20;;;1.97;;
9188;SDS011;34313;50.780;6.084;2023-07-29T14:39:48;2.87;;;1.83;;
9188;SDS011;34313;50.780;6.084;2023-07-29T14:42:13;5.60;;;1.70;;
9188;SDS011;34313;50.780;6.084;2023-07-29T14:44:40;3.13;;;2.03;;
9188;SDS011;34313;50.780;6.084;2023-07-29T14:47:05;2.00;;;1.63;;
9188;SDS011;34313;50.780;6.084;2023-07-29T14:49:31;2.80;;;2.13;;
9188;SDS011;34313;50.780;6.084;2023-07-29T14:51:57;3.43;;;1.87;;
9188;SDS011;34313;50.780;6.084;2023-07-29T14:54:22;2.80;;;2.20;;
9188;SDS011;34313;50.780;6.084;2023-07-29T14:56:47;5.33;;;2.40;;
9188;SDS011;34313;50.780;6.084;2023-07-29T14:59:12;2.93;;;2.37;;